sensor_id;sensor_type;location;lat;lon;timestamp;pressure;altitude;pressure_sealevel;temperature;humidity
21011;BME280;10663;42.714;23.274;2022-09-24T00:01:22;95165.38;;;5.81;86.64
21011;BME280;10663;42.714;23.274;2022-09-24T00:02:54;95166.63;;;5.78;86.86
21011;BME280;10663;42.714;23.274;2022-09-24T00:04:26;95160.97;;;5.63;87.07
21011;BME280;10663;42.714;23.274;2022-09-24T00:06:02;95160.34;;;5.49;87.33
21011;BME280;10663;42.714;23.274;2022-09-24T00:07:33;95163.38;;;5.46;88.13
21011;BME280;10663;42.714;23.274;2022-09-24T00:09:04;95163.25;;;5.41;88.15
21011;BME280;10663;42.714;23.274;2022-09-24T00:10:39;95162.19;;;5.31;88.42
21011;BME280;10663;42.714;23.274;2022-09-24T00:12:10;95161.84;;;5.27;89.15
21011;BME280;10663;42.714;23.274;2022-09-24T00:13:42;95160.53;;;5.18;89.42
21011;BME280;10663;42.714;23.274;2022-09-24T00:15:13;95161.75;;;5.15;89.71
21011;BME280;10663;42.714;23.274;2022-09-24T00:16:44;95159.63;;;5.06;89.69
21011;BME280;10663;42.714;23.274;2022-09-24T00:18:16;95162.13;;;5.01;90.20
21011;BME280;10663;42.714;23.274;2022-09-24T00:19:47;95159.84;;;5.04;90.06
21011;BME280;10663;42.714;23.274;2022-09-24T00:21:23;95157.59;;;5.08;90.52
21011;BME280;10663;42.714;23.274;2022-09-24T00:22:54;95149.06;;;5.12;90.89
21011;BME280;10663;42.714;23.274;2022-09-24T00:24:25;95155.19;;;5.24;90.24
21011;BME280;10663;42.714;23.274;2022-09-24T00:26:15;95155.81;;;5.38;89.49
21011;BME280;10663;42.714;23.274;2022-09-24T00:28:04;95153.28;;;5.32;89.44
21011;BME280;10663;42.714;23.274;2022-09-24T00:29:35;95155.53;;;5.28;89.60
21011;BME280;10663;42.714;23.274;2022-09-24T00:31:06;95151.84;;;5.17;89.91
21011;BME280;10663;42.714;23.274;2022-09-24T00:32:37;95151.69;;;5.12;90.23
21011;BME280;10663;42.714;23.274;2022-09-24T00:34:08;95147.97;;;5.20;90.28
21011;BME280;10663;42.714;23.274;2022-09-24T00:35:39;95153.72;;;5.10;90.49
21011;BME280;10663;42.714;23.274;2022-09-24T00:37:11;95143.97;;;4.99;91.01
21011;BME280;10663;42.714;23.274;2022-09-24T00:38:41;95149.78;;;5.01;90.93
21011;BME280;10663;42.714;23.274;2022-09-24T00:40:12;95150.53;;;5.08;90.30
21011;BME280;10663;42.714;23.274;2022-09-24T00:41:45;95153.00;;;5.03;90.70
21011;BME280;10663;42.714;23.274;2022-09-24T00:43:32;95153.28;;;4.95;91.12
21011;BME280;10663;42.714;23.274;2022-09-24T00:45:08;95155.09;;;4.95;91.11
21011;BME280;10663;42.714;23.274;2022-09-24T00:46:41;95147.44;;;5.11;90.41
21011;BME280;10663;42.714;23.274;2022-09-24T00:48:13;95143.88;;;5.24;89.81
21011;BME280;10663;42.714;23.274;2022-09-24T00:49:46;95145.56;;;5.37;89.20
21011;BME280;10663;42.714;23.274;2022-09-24T00:51:20;95148.97;;;5.37;88.96
21011;BME280;10663;42.714;23.274;2022-09-24T00:53:04;95140.84;;;5.57;88.34
21011;BME280;10663;42.714;23.274;2022-09-24T00:54:38;95146.53;;;5.54;87.98
21011;BME280;10663;42.714;23.274;2022-09-24T00:56:14;95146.88;;;5.28;88.30
21011;BME280;10663;42.714;23.274;2022-09-24T00:57:46;95146.88;;;5.28;89.23
21011;BME280;10663;42.714;23.274;2022-09-24T00:59:21;95141.16;;;5.31;88.61
21011;BME280;10663;42.714;23.274;2022-09-24T01:00:58;95141.19;;;5.12;89.05
21011;BME280;10663;42.714;23.274;2022-09-24T01:02:31;95146.66;;;4.93;90.22
21011;BME280;10663;42.714;23.274;2022-09-24T01:04:05;95139.75;;;4.98;91.17
21011;BME280;10663;42.714;23.274;2022-09-24T01:05:37;95142.19;;;5.11;90.50
21011;BME280;10663;42.714;23.274;2022-09-24T01:07:08;95140.97;;;4.96;90.98
21011;BME280;10663;42.714;23.274;2022-09-24T01:08:39;95145.50;;;4.88;91.26
21011;BME280;10663;42.714;23.274;2022-09-24T01:10:10;95146.66;;;4.93;91.57
21011;BME280;10663;42.714;23.274;2022-09-24T01:16:14;95139.78;;;5.28;90.03
21011;BME280;10663;42.714;23.274;2022-09-24T01:20:01;95129.44;;;5.63;88.13
21011;BME280;10663;42.714;23.274;2022-09-24T01:21:49;95129.78;;;5.55;88.06
21011;BME280;10663;42.714;23.274;2022-09-24T01:25:03;95133.34;;;5.42;88.82
21011;BME280;10663;42.714;23.274;2022-09-24T01:27:07;95139.44;;;5.24;89.44
21011;BME280;10663;42.714;23.274;2022-09-24T01:30:55;95133.75;;;5.28;88.46
21011;BME280;10663;42.714;23.274;2022-09-24T01:32:52;95138.19;;;5.27;88.69
21011;BME280;10663;42.714;23.274;2022-09-24T01:34:28;95136.31;;;5.16;89.26
21011;BME280;10663;42.714;23.274;2022-09-24T01:36:03;95137.97;;;5.28;89.61
21011;BME280;10663;42.714;23.274;2022-09-24T01:37:40;95131.88;;;5.46;88.96
21011;BME280;10663;42.714;23.274;2022-09-24T01:39:13;95136.47;;;5.51;88.14
21011;BME280;10663;42.714;23.274;2022-09-24T01:40:45;95137.59;;;5.43;87.99
21011;BME280;10663;42.714;23.274;2022-09-24T01:42:17;95133.50;;;5.29;88.55
21011;BME280;10663;42.714;23.274;2022-09-24T01:43:49;95144.56;;;5.49;88.59
21011;BME280;10663;42.714;23.274;2022-09-24T01:45:21;95137.28;;;5.51;87.58
21011;BME280;10663;42.714;23.274;2022-09-24T01:46:52;95133.75;;;5.57;87.50
21011;BME280;10663;42.714;23.274;2022-09-24T01:48:27;95143.13;;;5.53;87.37
21011;BME280;10663;42.714;23.274;2022-09-24T01:49:58;95141.19;;;5.60;86.72
21011;BME280;10663;42.714;23.274;2022-09-24T01:51:51;95139.91;;;5.51;86.89
21011;BME280;10663;42.714;23.274;2022-09-24T01:53:26;95141.88;;;5.38;87.47
21011;BME280;10663;42.714;23.274;2022-09-24T01:54:58;95143.38;;;5.34;88.25
21011;BME280;10663;42.714;23.274;2022-09-24T01:56:45;95143.72;;;5.37;87.37
21011;BME280;10663;42.714;23.274;2022-09-24T01:58:25;95141.13;;;5.19;87.39
21011;BME280;10663;42.714;23.274;2022-09-24T02:00:05;95148.13;;;5.07;87.82
21011;BME280;10663;42.714;23.274;2022-09-24T02:04:06;95154.56;;;4.68;89.71
21011;BME280;10663;42.714;23.274;2022-09-24T02:07:25;95161.53;;;4.56;91.00
21011;BME280;10663;42.714;23.274;2022-09-24T02:08:59;95166.09;;;4.85;90.83
21011;BME280;10663;42.714;23.274;2022-09-24T02:10:36;95163.47;;;4.85;90.28
21011;BME280;10663;42.714;23.274;2022-09-24T02:12:13;95161.16;;;4.77;90.58
21011;BME280;10663;42.714;23.274;2022-09-24T02:14:12;95161.38;;;4.94;89.79
21011;BME280;10663;42.714;23.274;2022-09-24T02:15:45;95174.28;;;4.95;89.26
21011;BME280;10663;42.714;23.274;2022-09-24T02:17:21;95171.31;;;4.92;90.19
21011;BME280;10663;42.714;23.274;2022-09-24T02:18:55;95166.00;;;4.55;91.51
21011;BME280;10663;42.714;23.274;2022-09-24T02:20:29;95175.66;;;4.36;93.03
21011;BME280;10663;42.714;23.274;2022-09-24T02:22:03;95178.75;;;4.27;94.49
21011;BME280;10663;42.714;23.274;2022-09-24T02:23:37;95174.84;;;4.36;95.01
21011;BME280;10663;42.714;23.274;2022-09-24T02:25:13;95170.94;;;4.45;94.74
21011;BME280;10663;42.714;23.274;2022-09-24T02:26:46;95176.19;;;4.45;93.93
21011;BME280;10663;42.714;23.274;2022-09-24T02:28:18;95180.56;;;4.26;94.17
21011;BME280;10663;42.714;23.274;2022-09-24T02:29:49;95178.47;;;4.35;94.64
21011;BME280;10663;42.714;23.274;2022-09-24T02:31:36;95181.84;;;4.17;95.29
21011;BME280;10663;42.714;23.274;2022-09-24T02:33:09;95183.72;;;4.03;96.26
21011;BME280;10663;42.714;23.274;2022-09-24T02:35:05;95180.19;;;3.91;96.84
21011;BME280;10663;42.714;23.274;2022-09-24T02:36:37;95192.50;;;3.84;97.51
21011;BME280;10663;42.714;23.274;2022-09-24T02:38:17;95189.91;;;3.84;98.25
21011;BME280;10663;42.714;23.274;2022-09-24T02:39:48;95190.34;;;3.74;97.83
21011;BME280;10663;42.714;23.274;2022-09-24T02:41:20;95187.31;;;3.78;98.49
21011;BME280;10663;42.714;23.274;2022-09-24T02:42:55;95193.00;;;4.06;96.31
21011;BME280;10663;42.714;23.274;2022-09-24T02:44:26;95192.31;;;4.17;95.79
21011;BME280;10663;42.714;23.274;2022-09-24T02:45:56;95192.59;;;4.02;95.81
21011;BME280;10663;42.714;23.274;2022-09-24T02:47:27;95191.50;;;3.85;96.25
21011;BME280;10663;42.714;23.274;2022-09-24T02:48:58;95188.38;;;3.70;97.18
21011;BME280;10663;42.714;23.274;2022-09-24T02:50:29;95186.31;;;3.79;98.02
21011;BME280;10663;42.714;23.274;2022-09-24T02:52:00;95186.59;;;3.95;97.73
21011;BME280;10663;42.714;23.274;2022-09-24T02:53:31;95193.41;;;4.03;97.05
21011;BME280;10663;42.714;23.274;2022-09-24T02:55:02;95196.16;;;4.14;96.38
21011;BME280;10663;42.714;23.274;2022-09-24T02:56:34;95201.94;;;4.48;94.20
21011;BME280;10663;42.714;23.274;2022-09-24T02:58:05;95201.94;;;4.48;92.72
21011;BME280;10663;42.714;23.274;2022-09-24T02:59:36;95202.94;;;4.54;92.58
21011;BME280;10663;42.714;23.274;2022-09-24T03:01:07;95205.03;;;4.38;92.21
21011;BME280;10663;42.714;23.274;2022-09-24T03:02:38;95206.09;;;4.06;93.60
21011;BME280;10663;42.714;23.274;2022-09-24T03:04:10;95203.34;;;3.94;94.78
21011;BME280;10663;42.714;23.274;2022-09-24T03:05:41;95201.38;;;3.83;94.72
21011;BME280;10663;42.714;23.274;2022-09-24T03:07:12;95197.84;;;3.71;95.97
21011;BME280;10663;42.714;23.274;2022-09-24T03:08:44;95206.09;;;3.68;96.91
21011;BME280;10663;42.714;23.274;2022-09-24T03:10:14;95203.03;;;3.78;96.23
21011;BME280;10663;42.714;23.274;2022-09-24T03:11:45;95202.19;;;3.84;95.40
21011;BME280;10663;42.714;23.274;2022-09-24T03:13:17;95203.44;;;3.81;94.99
21011;BME280;10663;42.714;23.274;2022-09-24T03:14:48;95203.34;;;3.94;94.04
21011;BME280;10663;42.714;23.274;2022-09-24T03:16:19;95200.09;;;3.99;92.77
21011;BME280;10663;42.714;23.274;2022-09-24T03:17:50;95207.50;;;4.08;92.81
21011;BME280;10663;42.714;23.274;2022-09-24T03:19:21;95197.13;;;4.20;91.69
21011;BME280;10663;42.714;23.274;2022-09-24T03:21:00;95204.16;;;4.26;91.08
21011;BME280;10663;42.714;23.274;2022-09-24T03:22:31;95204.88;;;4.08;90.05
21011;BME280;10663;42.714;23.274;2022-09-24T03:24:02;95205.75;;;3.96;91.28
21011;BME280;10663;42.714;23.274;2022-09-24T03:25:33;95211.69;;;3.78;93.28
21011;BME280;10663;42.714;23.274;2022-09-24T03:27:04;95209.13;;;3.65;95.69
21011;BME280;10663;42.714;23.274;2022-09-24T03:28:35;95207.06;;;3.80;95.83
21011;BME280;10663;42.714;23.274;2022-09-24T03:30:07;95213.34;;;3.66;95.22
21011;BME280;10663;42.714;23.274;2022-09-24T03:31:56;95215.03;;;3.98;95.32
21011;BME280;10663;42.714;23.274;2022-09-24T03:33:45;95215.53;;;3.75;94.39
21011;BME280;10663;42.714;23.274;2022-09-24T03:35:16;95220.25;;;3.60;95.61
21011;BME280;10663;42.714;23.274;2022-09-24T03:36:47;95211.63;;;3.47;96.85
21011;BME280;10663;42.714;23.274;2022-09-24T03:38:17;95209.44;;;3.37;97.53
21011;BME280;10663;42.714;23.274;2022-09-24T03:39:48;95222.09;;;3.47;97.60
21011;BME280;10663;42.714;23.274;2022-09-24T03:41:19;95217.03;;;3.58;96.83
21011;BME280;10663;42.714;23.274;2022-09-24T03:42:50;95222.72;;;3.87;95.39
21011;BME280;10663;42.714;23.274;2022-09-24T03:44:21;95218.44;;;3.99;94.19
21011;BME280;10663;42.714;23.274;2022-09-24T03:45:52;95212.94;;;4.07;93.35
21011;BME280;10663;42.714;23.274;2022-09-24T03:47:23;95219.41;;;4.04;92.05
21011;BME280;10663;42.714;23.274;2022-09-24T03:48:54;95213.09;;;4.12;92.48
21011;BME280;10663;42.714;23.274;2022-09-24T03:50:27;95217.88;;;3.90;93.07
21011;BME280;10663;42.714;23.274;2022-09-24T03:51:58;95217.75;;;3.79;92.61
21011;BME280;10663;42.714;23.274;2022-09-24T03:53:29;95220.91;;;3.87;92.34
21011;BME280;10663;42.714;23.274;2022-09-24T03:54:59;95220.56;;;4.15;91.68
21011;BME280;10663;42.714;23.274;2022-09-24T03:56:30;95225.53;;;4.23;91.35
21011;BME280;10663;42.714;23.274;2022-09-24T03:58:01;95219.16;;;4.12;90.54
21011;BME280;10663;42.714;23.274;2022-09-24T03:59:32;95224.34;;;4.19;90.42
21011;BME280;10663;42.714;23.274;2022-09-24T04:01:08;95229.75;;;4.24;90.45
21011;BME280;10663;42.714;23.274;2022-09-24T04:02:39;95227.28;;;4.29;89.29
21011;BME280;10663;42.714;23.274;2022-09-24T04:04:10;95229.72;;;4.31;88.79
21011;BME280;10663;42.714;23.274;2022-09-24T04:05:45;95222.97;;;4.41;88.91
21011;BME280;10663;42.714;23.274;2022-09-24T04:07:16;95234.22;;;4.48;89.31
21011;BME280;10663;42.714;23.274;2022-09-24T04:08:47;95232.28;;;4.37;88.80
21011;BME280;10663;42.714;23.274;2022-09-24T04:10:18;95229.91;;;4.29;88.89
21011;BME280;10663;42.714;23.274;2022-09-24T04:11:48;95235.00;;;4.24;89.04
21011;BME280;10663;42.714;23.274;2022-09-24T04:13:22;95229.19;;;4.47;89.19
21011;BME280;10663;42.714;23.274;2022-09-24T04:14:52;95234.00;;;4.50;88.64
21011;BME280;10663;42.714;23.274;2022-09-24T04:16:23;95236.16;;;4.60;89.15
21011;BME280;10663;42.714;23.274;2022-09-24T04:17:56;95222.03;;;4.61;89.14
21011;BME280;10663;42.714;23.274;2022-09-24T04:19:27;95230.84;;;4.66;89.33
21011;BME280;10663;42.714;23.274;2022-09-24T04:20:59;95225.34;;;4.74;89.60
21011;BME280;10663;42.714;23.274;2022-09-24T04:22:30;95227.66;;;4.64;88.53
21011;BME280;10663;42.714;23.274;2022-09-24T04:24:01;95234.94;;;4.62;89.23
21011;BME280;10663;42.714;23.274;2022-09-24T04:25:32;95236.47;;;4.70;88.26
21011;BME280;10663;42.714;23.274;2022-09-24T04:27:03;95236.91;;;4.67;88.38
21011;BME280;10663;42.714;23.274;2022-09-24T04:28:34;95242.47;;;4.27;89.56
21011;BME280;10663;42.714;23.274;2022-09-24T04:30:05;95239.41;;;3.99;91.42
21011;BME280;10663;42.714;23.274;2022-09-24T04:31:36;95244.34;;;4.45;91.71
21011;BME280;10663;42.714;23.274;2022-09-24T04:33:08;95247.59;;;4.40;90.70
21011;BME280;10663;42.714;23.274;2022-09-24T04:34:38;95249.06;;;4.36;91.44
21011;BME280;10663;42.714;23.274;2022-09-24T04:36:09;95247.84;;;4.64;91.27
21011;BME280;10663;42.714;23.274;2022-09-24T04:37:40;95253.97;;;4.76;90.45
21011;BME280;10663;42.714;23.274;2022-09-24T04:39:12;95253.34;;;4.80;90.21
21011;BME280;10663;42.714;23.274;2022-09-24T04:40:43;95246.19;;;4.38;90.42
21011;BME280;10663;42.714;23.274;2022-09-24T04:42:17;95244.16;;;4.40;91.31
21011;BME280;10663;42.714;23.274;2022-09-24T04:43:48;95249.63;;;4.38;90.40
21011;BME280;10663;42.714;23.274;2022-09-24T04:45:20;95251.03;;;4.66;89.07
21011;BME280;10663;42.714;23.274;2022-09-24T04:46:51;95248.88;;;4.56;89.22
21011;BME280;10663;42.714;23.274;2022-09-24T04:48:22;95250.53;;;4.50;88.63
21011;BME280;10663;42.714;23.274;2022-09-24T04:49:53;95250.09;;;4.29;88.18
21011;BME280;10663;42.714;23.274;2022-09-24T04:51:24;95252.84;;;4.40;87.60
21011;BME280;10663;42.714;23.274;2022-09-24T04:52:55;95252.78;;;4.47;87.36
21011;BME280;10663;42.714;23.274;2022-09-24T04:54:26;95253.09;;;4.32;87.31
21011;BME280;10663;42.714;23.274;2022-09-24T04:55:59;95255.38;;;4.22;89.75
21011;BME280;10663;42.714;23.274;2022-09-24T04:57:30;95250.97;;;4.47;88.76
21011;BME280;10663;42.714;23.274;2022-09-24T04:59:05;95256.50;;;4.64;87.13
21011;BME280;10663;42.714;23.274;2022-09-24T05:00:37;95253.97;;;4.76;86.65
21011;BME280;10663;42.714;23.274;2022-09-24T05:02:08;95253.94;;;4.82;85.73
21011;BME280;10663;42.714;23.274;2022-09-24T05:03:39;95252.09;;;4.83;85.59
21011;BME280;10663;42.714;23.274;2022-09-24T05:05:10;95250.13;;;4.78;85.29
21011;BME280;10663;42.714;23.274;2022-09-24T05:06:41;95246.81;;;4.89;85.08
21011;BME280;10663;42.714;23.274;2022-09-24T05:08:13;95253.38;;;4.99;85.00
21011;BME280;10663;42.714;23.274;2022-09-24T05:09:44;95256.81;;;4.99;85.09
21011;BME280;10663;42.714;23.274;2022-09-24T05:11:15;95253.69;;;5.09;84.75
21011;BME280;10663;42.714;23.274;2022-09-24T05:12:45;95249.88;;;5.05;84.41
21011;BME280;10663;42.714;23.274;2022-09-24T05:14:16;95248.44;;;5.09;84.60
21011;BME280;10663;42.714;23.274;2022-09-24T05:15:47;95247.66;;;5.08;84.96
21011;BME280;10663;42.714;23.274;2022-09-24T05:17:18;95242.13;;;5.16;85.05
21011;BME280;10663;42.714;23.274;2022-09-24T05:18:50;95250.28;;;5.08;85.58
21011;BME280;10663;42.714;23.274;2022-09-24T05:20:20;95250.41;;;5.13;85.41
21011;BME280;10663;42.714;23.274;2022-09-24T05:21:51;95254.00;;;5.19;85.23
21011;BME280;10663;42.714;23.274;2022-09-24T05:23:22;95249.19;;;5.16;85.75
21011;BME280;10663;42.714;23.274;2022-09-24T05:24:53;95251.31;;;5.25;85.23
21011;BME280;10663;42.714;23.274;2022-09-24T05:26:24;95252.13;;;5.44;84.84
21011;BME280;10663;42.714;23.274;2022-09-24T05:28:14;95256.41;;;5.39;84.67
21011;BME280;10663;42.714;23.274;2022-09-24T05:29:45;95256.56;;;5.44;84.89
21011;BME280;10663;42.714;23.274;2022-09-24T05:31:15;95260.34;;;5.48;84.49
21011;BME280;10663;42.714;23.274;2022-09-24T05:32:46;95266.03;;;5.26;84.90
21011;BME280;10663;42.714;23.274;2022-09-24T05:34:21;95267.94;;;5.38;84.90
21011;BME280;10663;42.714;23.274;2022-09-24T05:35:56;95263.72;;;5.55;84.27
21011;BME280;10663;42.714;23.274;2022-09-24T05:37:29;95272.03;;;5.70;83.60
21011;BME280;10663;42.714;23.274;2022-09-24T05:39:00;95265.16;;;5.87;83.44
21011;BME280;10663;42.714;23.274;2022-09-24T05:40:31;95267.28;;;5.97;82.87
21011;BME280;10663;42.714;23.274;2022-09-24T05:42:17;95273.44;;;6.21;82.81
21011;BME280;10663;42.714;23.274;2022-09-24T05:43:48;95269.94;;;6.27;82.06
21011;BME280;10663;42.714;23.274;2022-09-24T05:45:19;95271.84;;;6.20;82.48
21011;BME280;10663;42.714;23.274;2022-09-24T05:46:50;95271.88;;;5.83;83.68
21011;BME280;10663;42.714;23.274;2022-09-24T05:48:21;95276.88;;;5.55;85.36
21011;BME280;10663;42.714;23.274;2022-09-24T05:49:52;95280.81;;;5.64;85.77
21011;BME280;10663;42.714;23.274;2022-09-24T05:51:23;95278.50;;;5.86;85.41
21011;BME280;10663;42.714;23.274;2022-09-24T05:52:54;95274.47;;;5.90;84.98
21011;BME280;10663;42.714;23.274;2022-09-24T05:54:25;95276.69;;;6.05;84.10
21011;BME280;10663;42.714;23.274;2022-09-24T05:55:56;95274.94;;;6.28;84.14
21011;BME280;10663;42.714;23.274;2022-09-24T05:57:28;95271.72;;;6.45;82.77
21011;BME280;10663;42.714;23.274;2022-09-24T05:58:59;95275.84;;;6.52;82.59
21011;BME280;10663;42.714;23.274;2022-09-24T06:00:33;95268.44;;;6.61;82.44
21011;BME280;10663;42.714;23.274;2022-09-24T06:02:05;95269.13;;;6.68;81.89
21011;BME280;10663;42.714;23.274;2022-09-24T06:03:36;95272.78;;;6.67;81.45
21011;BME280;10663;42.714;23.274;2022-09-24T06:05:07;95268.81;;;6.88;81.01
21011;BME280;10663;42.714;23.274;2022-09-24T06:06:38;95274.88;;;7.11;80.39
21011;BME280;10663;42.714;23.274;2022-09-24T06:08:09;95283.72;;;7.17;79.52
21011;BME280;10663;42.714;23.274;2022-09-24T06:09:41;95282.00;;;7.23;79.48
21011;BME280;10663;42.714;23.274;2022-09-24T06:11:12;95283.56;;;6.77;80.99
21011;BME280;10663;42.714;23.274;2022-09-24T06:12:43;95283.19;;;6.62;81.97
21011;BME280;10663;42.714;23.274;2022-09-24T06:14:14;95284.81;;;6.74;82.00
21011;BME280;10663;42.714;23.274;2022-09-24T06:15:45;95282.34;;;6.91;81.85
21011;BME280;10663;42.714;23.274;2022-09-24T06:17:16;95276.16;;;6.97;81.07
21011;BME280;10663;42.714;23.274;2022-09-24T06:18:47;95283.94;;;7.04;81.05
21011;BME280;10663;42.714;23.274;2022-09-24T06:20:18;95279.50;;;7.16;80.74
21011;BME280;10663;42.714;23.274;2022-09-24T06:21:49;95279.03;;;7.31;79.54
21011;BME280;10663;42.714;23.274;2022-09-24T06:23:20;95284.50;;;7.29;79.74
21011;BME280;10663;42.714;23.274;2022-09-24T06:24:50;95288.97;;;7.40;79.03
21011;BME280;10663;42.714;23.274;2022-09-24T06:26:21;95285.09;;;7.43;79.55
21011;BME280;10663;42.714;23.274;2022-09-24T06:27:57;95285.31;;;7.30;79.71
21011;BME280;10663;42.714;23.274;2022-09-24T06:29:31;95289.88;;;7.11;80.53
21011;BME280;10663;42.714;23.274;2022-09-24T06:31:03;95295.06;;;7.06;81.32
21011;BME280;10663;42.714;23.274;2022-09-24T06:32:35;95295.84;;;7.06;80.52
21011;BME280;10663;42.714;23.274;2022-09-24T06:34:06;95296.69;;;7.19;80.84
21011;BME280;10663;42.714;23.274;2022-09-24T06:35:38;95290.50;;;7.36;80.65
21011;BME280;10663;42.714;23.274;2022-09-24T06:37:09;95297.69;;;7.29;80.07
21011;BME280;10663;42.714;23.274;2022-09-24T06:38:40;95304.09;;;7.33;79.72
21011;BME280;10663;42.714;23.274;2022-09-24T06:40:11;95289.22;;;7.39;79.53
21011;BME280;10663;42.714;23.274;2022-09-24T06:41:42;95291.16;;;7.43;79.99
21011;BME280;10663;42.714;23.274;2022-09-24T06:43:13;95288.31;;;7.33;79.93
21011;BME280;10663;42.714;23.274;2022-09-24T06:44:44;95297.59;;;7.24;80.62
21011;BME280;10663;42.714;23.274;2022-09-24T06:46:15;95286.94;;;7.42;79.47
21011;BME280;10663;42.714;23.274;2022-09-24T06:47:58;95283.72;;;7.64;78.66
21011;BME280;10663;42.714;23.274;2022-09-24T06:49:29;95283.94;;;7.62;78.07
21011;BME280;10663;42.714;23.274;2022-09-24T06:51:03;95287.81;;;7.60;78.85
21011;BME280;10663;42.714;23.274;2022-09-24T06:52:34;95288.25;;;7.80;77.76
21011;BME280;10663;42.714;23.274;2022-09-24T06:54:04;95288.94;;;7.87;77.20
21011;BME280;10663;42.714;23.274;2022-09-24T06:55:36;95286.09;;;8.17;76.60
21011;BME280;10663;42.714;23.274;2022-09-24T06:57:07;95286.13;;;8.05;76.33
21011;BME280;10663;42.714;23.274;2022-09-24T06:58:38;95284.63;;;8.09;76.22
21011;BME280;10663;42.714;23.274;2022-09-24T07:00:10;95283.56;;;8.10;76.30
21011;BME280;10663;42.714;23.274;2022-09-24T07:01:41;95280.38;;;8.08;76.17
21011;BME280;10663;42.714;23.274;2022-09-24T07:03:14;95287.16;;;8.04;75.79
21011;BME280;10663;42.714;23.274;2022-09-24T07:04:46;95289.06;;;7.69;76.94
21011;BME280;10663;42.714;23.274;2022-09-24T07:06:16;95293.00;;;8.06;76.76
21011;BME280;10663;42.714;23.274;2022-09-24T07:07:47;95294.06;;;8.45;75.64
21011;BME280;10663;42.714;23.274;2022-09-24T07:09:18;95289.25;;;8.59;74.94
21011;BME280;10663;42.714;23.274;2022-09-24T07:10:49;95289.59;;;8.62;74.01
21011;BME280;10663;42.714;23.274;2022-09-24T07:12:22;95291.13;;;8.75;73.75
21011;BME280;10663;42.714;23.274;2022-09-24T07:13:53;95292.97;;;8.18;75.58
21011;BME280;10663;42.714;23.274;2022-09-24T07:15:24;95290.72;;;8.10;76.58
21011;BME280;10663;42.714;23.274;2022-09-24T07:16:54;95288.59;;;8.35;75.46
21011;BME280;10663;42.714;23.274;2022-09-24T07:18:25;95286.59;;;8.31;74.86
21011;BME280;10663;42.714;23.274;2022-09-24T07:19:56;95287.81;;;8.11;75.93
21011;BME280;10663;42.714;23.274;2022-09-24T07:21:27;95292.38;;;8.56;74.29
21011;BME280;10663;42.714;23.274;2022-09-24T07:22:58;95286.81;;;8.41;74.35
21011;BME280;10663;42.714;23.274;2022-09-24T07:24:29;95278.97;;;8.74;73.62
21011;BME280;10663;42.714;23.274;2022-09-24T07:26:00;95279.94;;;8.85;73.66
21011;BME280;10663;42.714;23.274;2022-09-24T07:27:32;95283.53;;;8.79;73.17
21011;BME280;10663;42.714;23.274;2022-09-24T07:29:03;95291.16;;;8.47;73.78
21011;BME280;10663;42.714;23.274;2022-09-24T07:30:34;95287.28;;;8.66;73.52
21011;BME280;10663;42.714;23.274;2022-09-24T07:32:06;95290.09;;;8.76;73.21
21011;BME280;10663;42.714;23.274;2022-09-24T07:33:36;95283.66;;;9.00;73.53
21011;BME280;10663;42.714;23.274;2022-09-24T07:35:08;95286.97;;;9.29;72.34
21011;BME280;10663;42.714;23.274;2022-09-24T07:36:40;95285.28;;;9.40;70.74
21011;BME280;10663;42.714;23.274;2022-09-24T07:38:11;95281.16;;;9.66;70.23
21011;BME280;10663;42.714;23.274;2022-09-24T07:39:42;95278.63;;;9.54;70.24
21011;BME280;10663;42.714;23.274;2022-09-24T07:41:15;95274.38;;;9.53;70.27
21011;BME280;10663;42.714;23.274;2022-09-24T07:42:48;95280.47;;;9.75;69.90
21011;BME280;10663;42.714;23.274;2022-09-24T07:44:19;95278.25;;;9.67;69.53
21011;BME280;10663;42.714;23.274;2022-09-24T07:45:51;95274.44;;;9.58;70.33
21011;BME280;10663;42.714;23.274;2022-09-24T07:47:22;95280.16;;;9.50;70.77
21011;BME280;10663;42.714;23.274;2022-09-24T07:48:53;95279.44;;;9.76;69.89
21011;BME280;10663;42.714;23.274;2022-09-24T07:50:29;95278.22;;;9.62;69.77
21011;BME280;10663;42.714;23.274;2022-09-24T07:52:01;95268.88;;;9.76;69.20
21011;BME280;10663;42.714;23.274;2022-09-24T07:53:31;95274.56;;;9.47;70.17
21011;BME280;10663;42.714;23.274;2022-09-24T07:55:03;95278.53;;;9.88;69.31
21011;BME280;10663;42.714;23.274;2022-09-24T07:56:34;95273.47;;;9.86;68.94
21011;BME280;10663;42.714;23.274;2022-09-24T07:58:06;95271.72;;;9.92;69.37
21011;BME280;10663;42.714;23.274;2022-09-24T07:59:39;95268.19;;;9.86;68.97
21011;BME280;10663;42.714;23.274;2022-09-24T08:01:10;95274.97;;;9.77;69.36
21011;BME280;10663;42.714;23.274;2022-09-24T08:02:46;95277.03;;;9.75;69.88
21011;BME280;10663;42.714;23.274;2022-09-24T08:04:17;95264.56;;;10.14;69.33
21011;BME280;10663;42.714;23.274;2022-09-24T08:05:48;95274.59;;;10.12;68.06
21011;BME280;10663;42.714;23.274;2022-09-24T08:07:19;95269.84;;;10.14;68.12
21011;BME280;10663;42.714;23.274;2022-09-24T08:08:51;95263.22;;;10.33;67.81
21011;BME280;10663;42.714;23.274;2022-09-24T08:10:26;95267.50;;;10.39;67.81
21011;BME280;10663;42.714;23.274;2022-09-24T08:11:58;95267.50;;;10.39;67.47
21011;BME280;10663;42.714;23.274;2022-09-24T08:13:28;95271.47;;;10.15;67.29
21011;BME280;10663;42.714;23.274;2022-09-24T08:14:59;95271.81;;;10.45;66.47
21011;BME280;10663;42.714;23.274;2022-09-24T08:16:30;95266.25;;;10.47;66.63
21011;BME280;10663;42.714;23.274;2022-09-24T08:18:01;95263.53;;;10.64;66.44
21011;BME280;10663;42.714;23.274;2022-09-24T08:19:35;95268.22;;;10.57;65.48
21011;BME280;10663;42.714;23.274;2022-09-24T08:21:08;95269.31;;;10.61;65.61
21011;BME280;10663;42.714;23.274;2022-09-24T08:22:41;95268.97;;;10.79;65.14
21011;BME280;10663;42.714;23.274;2022-09-24T08:24:12;95264.31;;;10.91;64.83
21011;BME280;10663;42.714;23.274;2022-09-24T08:25:43;95262.78;;;11.00;63.77
21011;BME280;10663;42.714;23.274;2022-09-24T08:27:14;95265.97;;;11.02;64.00